Time;durP1;ratioP1;P1;durP2;ratioP2;P2;SDS_P1;SDS_P2;PMS_P1;PMS_P2;Temp;Humidity;BMP_temperature;BMP_pressure;BME280_temperature;BME280_humidity;BME280_pressure;Samples;Min_cycle;Max_cycle;Signal;HPM_P1;HPM_P2
2021/09/21 00:01:04;;;;;;;7.53;6.18;;;7.90;99.90;;;;;;5031560;28;20555;-50
2021/09/21 00:03:30;;;;;;;8.15;6.32;;;7.90;99.90;;;;;;5031941;28;20025;-50
2021/09/21 00:05:56;;;;;;;9.85;6.15;;;7.80;99.90;;;;;;5031632;28;20481;-49
2021/09/21 00:08:22;;;;;;;8.32;6.60;;;7.80;99.90;;;;;;5031859;28;20103;-49
2021/09/21 00:10:47;;;;;;;6.82;6.22;;;7.70;99.90;;;;;;5031705;28;20040;-47
2021/09/21 00:13:13;;;;;;;10.18;7.65;;;7.70;99.90;;;;;;5031692;28;20079;-53
2021/09/21 00:15:38;;;;;;;7.80;6.13;;;7.70;99.90;;;;;;5031334;28;20052;-49
2021/09/21 00:18:04;;;;;;;7.72;6.25;;;7.70;99.90;;;;;;5031442;28;20018;-52
2021/09/21 00:20:29;;;;;;;9.73;7.18;;;7.60;99.90;;;;;;5031290;28;20443;-48
2021/09/21 00:22:55;;;;;;;8.18;6.18;;;7.60;99.90;;;;;;5031552;28;20053;-49
2021/09/21 00:25:21;;;;;;;11.52;6.88;;;7.70;99.90;;;;;;5030962;28;20033;-50
2021/09/21 00:27:47;;;;;;;6.30;5.70;;;7.70;99.90;;;;;;5031401;28;20025;-49
2021/09/21 00:30:15;;;;;;;7.90;6.18;;;7.70;99.90;;;;;;5030961;28;20064;-50
2021/09/21 00:32:44;;;;;;;7.97;6.40;;;7.80;99.90;;;;;;5031253;28;20029;-47
2021/09/21 00:35:10;;;;;;;7.22;6.03;;;7.80;99.90;;;;;;5031129;28;20018;-47
2021/09/21 00:37:37;;;;;;;8.48;6.50;;;7.80;99.90;;;;;;5029269;28;20075;-47
2021/09/21 00:40:04;;;;;;;8.00;6.30;;;7.80;99.90;;;;;;5030977;28;20464;-47
2021/09/21 00:42:31;;;;;;;8.93;6.80;;;7.80;99.90;;;;;;5031392;28;20017;-49
2021/09/21 00:45:00;;;;;;;7.00;6.30;;;7.80;99.90;;;;;;5013231;28;20028;-48
2021/09/21 00:47:26;;;;;;;7.28;6.50;;;7.90;99.90;;;;;;5030988;28;20480;-47
2021/09/21 00:49:52;;;;;;;8.18;6.53;;;7.90;99.90;;;;;;5030491;28;20028;-47
2021/09/21 00:52:18;;;;;;;7.95;6.10;;;7.90;99.90;;;;;;5030920;28;20029;-51
2021/09/21 00:54:44;;;;;;;9.30;7.32;;;7.90;99.90;;;;;;5030984;28;20155;-47
2021/09/21 00:57:11;;;;;;;11.65;7.78;;;8.00;99.90;;;;;;5030689;28;20128;-50
2021/09/21 00:59:36;;;;;;;9.77;6.93;;;8.00;99.90;;;;;;5028083;28;20075;-49
2021/09/21 01:02:02;;;;;;;8.77;6.82;;;8.00;99.90;;;;;;5028545;28;20021;-51
2021/09/21 01:04:29;;;;;;;8.13;6.70;;;8.10;99.90;;;;;;5029563;28;20053;-51
2021/09/21 01:06:54;;;;;;;6.93;5.90;;;8.10;99.90;;;;;;5030530;28;20034;-52
2021/09/21 01:09:22;;;;;;;12.10;7.05;;;8.20;99.90;;;;;;5030458;28;20030;-47
2021/09/21 01:11:51;;;;;;;9.05;6.80;;;8.20;99.90;;;;;;5030764;28;20029;-47
2021/09/21 01:14:17;;;;;;;9.85;7.10;;;8.20;99.90;;;;;;5030326;28;20028;-48
2021/09/21 01:16:43;;;;;;;8.82;6.60;;;8.30;99.90;;;;;;5030788;28;20038;-47
2021/09/21 01:19:14;;;;;;;11.32;6.50;;;8.30;99.90;;;;;;5030433;28;20028;-49
2021/09/21 01:21:41;;;;;;;8.00;6.93;;;8.30;99.90;;;;;;5030402;28;20153;-50
2021/09/21 01:24:08;;;;;;;9.93;7.22;;;8.40;99.90;;;;;;5030127;28;20025;-52
2021/09/21 01:26:34;;;;;;;8.23;6.65;;;8.40;99.90;;;;;;5026138;28;20050;-50
2021/09/21 01:29:00;;;;;;;9.20;6.60;;;8.40;99.90;;;;;;5030102;28;20032;-46
2021/09/21 01:31:26;;;;;;;7.32;5.90;;;8.40;99.90;;;;;;5043941;28;20021;-49
2021/09/21 01:33:52;;;;;;;7.22;5.35;;;8.40;99.90;;;;;;5050105;28;20029;-50
2021/09/21 01:36:20;;;;;;;8.20;6.47;;;8.50;99.90;;;;;;5050213;28;20096;-47
2021/09/21 01:38:46;;;;;;;7.63;6.07;;;8.50;99.90;;;;;;5049827;28;20396;-50
2021/09/21 01:41:12;;;;;;;8.52;6.18;;;8.50;99.90;;;;;;5049684;28;20021;-47
2021/09/21 01:43:39;;;;;;;7.13;6.07;;;8.60;99.90;;;;;;5050194;28;20025;-47
2021/09/21 01:46:04;;;;;;;9.05;6.28;;;8.60;99.90;;;;;;5050310;28;20130;-53
2021/09/21 01:48:30;;;;;;;8.75;6.10;;;8.60;99.90;;;;;;5050131;28;20097;-48
2021/09/21 01:50:59;;;;;;;7.38;6.10;;;8.60;99.90;;;;;;5031805;28;20048;-52
2021/09/21 01:53:46;;;;;;;5.70;5.15;;;8.60;99.90;;;;;;5032033;28;20057;-53
2021/09/21 01:58:56;;;;;;;6.03;5.30;;;8.70;99.90;;;;;;5049967;28;20083;-51
2021/09/21 02:01:24;;;;;;;5.88;4.90;;;8.70;99.90;;;;;;5049592;28;20021;-50
2021/09/21 02:03:51;;;;;;;7.30;5.60;;;8.70;99.90;;;;;;5049990;28;20021;-50
2021/09/21 02:06:17;;;;;;;7.72;5.32;;;8.70;99.90;;;;;;5049735;28;20032;-50
2021/09/21 02:08:43;;;;;;;6.25;5.32;;;8.70;99.90;;;;;;5031867;28;20488;-50
2021/09/21 02:11:09;;;;;;;7.78;5.72;;;8.70;99.90;;;;;;5049657;28;20028;-51
2021/09/21 02:13:35;;;;;;;7.35;6.07;;;8.70;99.90;;;;;;5050132;28;20021;-49
2021/09/21 02:16:02;;;;;;;8.00;5.95;;;8.70;99.90;;;;;;5049859;28;20021;-48
2021/09/21 02:18:28;;;;;;;5.97;5.28;;;8.70;99.90;;;;;;5032053;28;20051;-48
2021/09/21 02:20:53;;;;;;;7.25;5.57;;;8.70;99.90;;;;;;5049674;28;20029;-49
2021/09/21 02:23:19;;;;;;;7.50;6.53;;;8.70;99.90;;;;;;5049745;28;20492;-48
2021/09/21 02:25:45;;;;;;;7.88;5.93;;;8.70;99.90;;;;;;5049578;28;20055;-48
2021/09/21 02:28:10;;;;;;;7.85;5.68;;;8.70;99.90;;;;;;5049701;28;20420;-47
2021/09/21 02:30:36;;;;;;;6.95;5.70;;;8.70;99.90;;;;;;5049609;28;20692;-52
2021/09/21 02:33:03;;;;;;;6.47;5.72;;;8.70;99.90;;;;;;5031868;28;20025;-48
2021/09/21 02:35:28;;;;;;;7.32;5.75;;;8.70;99.90;;;;;;5049479;28;20029;-49
2021/09/21 02:37:54;;;;;;;7.20;5.90;;;8.70;99.90;;;;;;5049682;28;20094;-47
2021/09/21 02:40:19;;;;;;;9.27;6.00;;;8.70;99.90;;;;;;5049229;28;20138;-47
2021/09/21 02:42:45;;;;;;;7.70;6.05;;;8.70;99.90;;;;;;5052136;28;20041;-53
2021/09/21 02:45:12;;;;;;;6.72;5.85;;;8.70;99.90;;;;;;5053516;28;20052;-50
2021/09/21 02:47:38;;;;;;;7.85;5.88;;;8.70;99.90;;;;;;5053803;28;20061;-47
2021/09/21 02:50:06;;;;;;;6.72;5.65;;;8.70;99.90;;;;;;5052866;28;20525;-47
2021/09/21 02:52:32;;;;;;;8.07;6.35;;;8.70;99.90;;;;;;5053245;28;20100;-47
2021/09/21 02:54:58;;;;;;;8.23;6.68;;;8.70;99.90;;;;;;5053179;28;20552;-46
2021/09/21 02:57:23;;;;;;;6.90;5.78;;;8.70;99.90;;;;;;5035015;28;20514;-48
2021/09/21 02:59:49;;;;;;;7.75;6.03;;;8.80;99.90;;;;;;5052681;28;20029;-48
2021/09/21 03:02:15;;;;;;;9.90;7.03;;;8.80;99.90;;;;;;5052961;28;20502;-47
2021/09/21 03:04:50;;;;;;;6.90;5.78;;;8.80;99.90;;;;;;5052807;28;20017;-52
2021/09/21 03:07:24;;;;;;;7.90;6.38;;;8.80;99.90;;;;;;5052969;28;20017;-47
2021/09/21 03:09:55;;;;;;;10.60;6.63;;;8.80;99.90;;;;;;5053008;28;20379;-47
2021/09/21 03:12:43;;;;;;;7.38;5.70;;;8.80;99.90;;;;;;5067828;22;20068;-51
2021/09/21 03:17:52;;;;;;;7.10;5.63;;;8.90;99.90;;;;;;5033079;28;20060;-50
2021/09/21 03:20:18;;;;;;;7.40;5.93;;;8.90;99.90;;;;;;5032266;28;20061;-51
2021/09/21 03:22:43;;;;;;;6.85;6.10;;;8.90;99.90;;;;;;5014855;28;20018;-52
2021/09/21 03:25:11;;;;;;;7.20;6.00;;;9.00;99.90;;;;;;5032232;28;20085;-51
2021/09/21 03:27:37;;;;;;;6.43;5.47;;;8.90;99.90;;;;;;5032348;28;20022;-50
2021/09/21 03:30:04;;;;;;;6.88;5.82;;;8.90;99.90;;;;;;5032112;28;20033;-51
2021/09/21 03:32:30;;;;;;;6.40;5.80;;;9.00;99.90;;;;;;5032185;28;20029;-53
2021/09/21 03:34:56;;;;;;;6.45;5.72;;;8.90;99.90;;;;;;5032371;28;20104;-55
2021/09/21 03:37:22;;;;;;;7.28;6.10;;;9.00;99.90;;;;;;5014538;28;20117;-52
2021/09/21 03:39:48;;;;;;;6.97;5.70;;;9.00;99.90;;;;;;5031942;28;20095;-51
2021/09/21 03:42:13;;;;;;;9.40;6.70;;;9.00;99.90;;;;;;5032191;28;20653;-51
2021/09/21 03:44:39;;;;;;;8.60;7.00;;;9.00;99.90;;;;;;5032236;28;20057;-51
2021/09/21 03:47:05;;;;;;;9.32;6.15;;;9.00;99.90;;;;;;5032388;28;20025;-51
2021/09/21 03:49:31;;;;;;;11.43;6.47;;;9.00;99.90;;;;;;5031875;28;20041;-52
2021/09/21 03:51:57;;;;;;;7.95;6.63;;;9.00;99.90;;;;;;5014207;28;20037;-51
2021/09/21 03:54:23;;;;;;;8.30;6.38;;;9.00;99.90;;;;;;5013648;28;20428;-51
2021/09/21 03:56:49;;;;;;;8.93;6.35;;;9.00;99.90;;;;;;5031833;28;20053;-52
2021/09/21 03:59:15;;;;;;;7.35;5.72;;;9.00;99.90;;;;;;5031569;28;20037;-51
2021/09/21 04:01:40;;;;;;;9.38;6.22;;;9.00;99.90;;;;;;5031739;28;20111;-51
2021/09/21 04:04:06;;;;;;;7.38;6.15;;;9.00;99.90;;;;;;5031967;28;20032;-51
2021/09/21 04:06:32;;;;;;;10.38;7.10;;;9.00;99.90;;;;;;5031908;28;20523;-51
2021/09/21 04:08:58;;;;;;;10.50;6.20;;;9.00;99.90;;;;;;5031657;28;20021;-52
2021/09/21 04:11:24;;;;;;;8.30;7.15;;;9.10;99.90;;;;;;5031392;28;20084;-51
2021/09/21 04:13:50;;;;;;;8.52;6.15;;;9.10;99.90;;;;;;5031521;28;20442;-50
2021/09/21 04:16:16;;;;;;;10.25;6.68;;;9.10;99.90;;;;;;5031616;28;20022;-51
2021/09/21 04:18:42;;;;;;;7.68;6.70;;;9.10;99.90;;;;;;5031944;28;20025;-51
2021/09/21 04:21:07;;;;;;;9.85;7.55;;;9.10;99.90;;;;;;5031474;28;20083;-51
2021/09/21 04:23:33;;;;;;;7.88;6.38;;;9.10;99.90;;;;;;5031402;28;20053;-51
2021/09/21 04:25:58;;;;;;;7.53;6.38;;;9.10;99.90;;;;;;5030640;28;20033;-53
2021/09/21 04:28:25;;;;;;;9.35;6.75;;;9.10;99.90;;;;;;5031357;28;20013;-51
2021/09/21 04:30:52;;;;;;;7.70;6.07;;;9.10;99.90;;;;;;5031120;28;20055;-53
2021/09/21 04:33:21;;;;;;;8.25;6.63;;;9.10;99.90;;;;;;5031127;28;20037;-51
2021/09/21 04:35:46;;;;;;;9.70;6.75;;;9.10;99.90;;;;;;5031209;28;20026;-50
2021/09/21 04:38:12;;;;;;;6.55;5.82;;;9.10;99.90;;;;;;5031263;28;20033;-53
2021/09/21 04:40:39;;;;;;;7.88;6.13;;;9.10;99.90;;;;;;5031620;28;20507;-50
2021/09/21 04:43:05;;;;;;;8.15;6.63;;;9.10;99.90;;;;;;5030969;28;20028;-50
2021/09/21 04:45:32;;;;;;;7.93;7.13;;;9.10;99.90;;;;;;5031185;28;20403;-50
2021/09/21 04:47:58;;;;;;;8.23;6.70;;;9.10;99.90;;;;;;5031207;28;20104;-53
2021/09/21 04:50:24;;;;;;;9.05;7.10;;;9.10;99.90;;;;;;5030811;28;20060;-52
2021/09/21 04:52:49;;;;;;;8.77;7.03;;;9.20;99.90;;;;;;5030847;28;20041;-55
2021/09/21 04:55:15;;;;;;;9.40;7.13;;;9.20;99.90;;;;;;5030925;28;20034;-52
2021/09/21 04:57:41;;;;;;;10.85;7.63;;;9.20;99.90;;;;;;5030603;28;20112;-52
2021/09/21 05:00:07;;;;;;;9.23;7.53;;;9.20;99.90;;;;;;5030472;28;20025;-50
2021/09/21 05:02:33;;;;;;;10.15;7.45;;;9.20;99.90;;;;;;5012763;28;20017;-52
2021/09/21 05:04:59;;;;;;;9.15;6.93;;;9.20;99.90;;;;;;5030004;28;20064;-52
2021/09/21 05:07:24;;;;;;;9.80;7.15;;;9.20;99.90;;;;;;5030213;28;20091;-51
2021/09/21 05:09:50;;;;;;;10.52;8.30;;;9.20;99.90;;;;;;5030288;28;20104;-50
2021/09/21 05:12:15;;;;;;;13.48;8.43;;;9.20;99.90;;;;;;5030017;28;20048;-51
2021/09/21 05:14:41;;;;;;;13.10;9.25;;;9.20;99.90;;;;;;5012092;28;20124;-52
2021/09/21 05:17:06;;;;;;;10.15;8.13;;;9.20;99.90;;;;;;5030279;28;20036;-51
2021/09/21 05:19:32;;;;;;;13.07;8.65;;;9.30;99.90;;;;;;5030110;28;20056;-52
2021/09/21 05:21:58;;;;;;;10.63;8.73;;;9.30;99.90;;;;;;5030222;28;20112;-52
2021/09/21 05:24:23;;;;;;;11.35;8.05;;;9.30;99.90;;;;;;5029689;28;20061;-51
2021/09/21 05:26:49;;;;;;;10.90;9.07;;;9.30;99.90;;;;;;5029877;28;20396;-50
2021/09/21 05:29:14;;;;;;;12.07;9.05;;;9.30;99.90;;;;;;5029611;28;20026;-50
2021/09/21 05:31:40;;;;;;;14.77;10.10;;;9.40;99.90;;;;;;5029879;28;20029;-51
2021/09/21 05:34:05;;;;;;;13.60;9.02;;;9.40;99.90;;;;;;5029876;28;20068;-50
2021/09/21 05:36:32;;;;;;;12.57;9.55;;;9.40;99.90;;;;;;5029757;28;20048;-51
2021/09/21 05:38:57;;;;;;;13.82;9.52;;;9.40;99.90;;;;;;5029820;28;20065;-50
2021/09/21 05:41:23;;;;;;;14.23;9.38;;;9.40;99.90;;;;;;5029530;28;20271;-51
2021/09/21 05:43:49;;;;;;;11.05;9.07;;;9.50;99.90;;;;;;5029636;28;20147;-51
2021/09/21 05:46:14;;;;;;;12.23;8.55;;;9.50;99.90;;;;;;5029781;28;20037;-51
2021/09/21 05:48:40;;;;;;;9.95;8.32;;;9.50;99.90;;;;;;5029922;28;20029;-52
2021/09/21 05:51:06;;;;;;;11.85;9.00;;;9.50;99.90;;;;;;5029486;28;20037;-52
2021/09/21 05:53:31;;;;;;;10.68;7.88;;;9.50;99.90;;;;;;5029582;28;20033;-52
2021/09/21 05:55:57;;;;;;;14.13;9.52;;;9.60;99.90;;;;;;5011996;28;20369;-51
2021/09/21 05:58:23;;;;;;;11.57;8.63;;;9.60;99.90;;;;;;5029647;28;20480;-51
2021/09/21 06:00:49;;;;;;;11.38;7.75;;;9.60;99.90;;;;;;5029324;28;20404;-51
2021/09/21 06:03:14;;;;;;;9.65;8.43;;;9.70;99.90;;;;;;5029638;28;20026;-51
2021/09/21 06:05:40;;;;;;;10.07;8.63;;;9.70;99.90;;;;;;5029400;28;20488;-51
2021/09/21 06:08:05;;;;;;;10.50;7.82;;;9.70;99.90;;;;;;5029287;28;20029;-51
2021/09/21 06:10:31;;;;;;;10.45;8.70;;;9.80;99.90;;;;;;5029315;28;20152;-51
2021/09/21 06:12:57;;;;;;;11.05;7.50;;;9.80;99.90;;;;;;5029311;28;20033;-51
2021/09/21 06:15:22;;;;;;;11.00;7.38;;;9.90;99.90;;;;;;5029394;28;20035;-50
2021/09/21 06:17:49;;;;;;;11.50;8.05;;;10.00;99.90;;;;;;5032342;28;20084;-51
2021/09/21 06:20:16;;;;;;;9.38;7.63;;;10.00;99.90;;;;;;5033399;28;20098;-51
2021/09/21 06:22:44;;;;;;;12.00;9.05;;;10.10;99.90;;;;;;5033561;28;20512;-53
2021/09/21 06:25:12;;;;;;;10.32;8.35;;;10.20;99.90;;;;;;5033085;28;20030;-52
2021/09/21 06:27:38;;;;;;;13.00;9.70;;;10.30;99.90;;;;;;5033303;28;20507;-51
2021/09/21 06:30:07;;;;;;;12.45;9.38;;;10.40;99.90;;;;;;5032918;28;20088;-51
2021/09/21 06:32:33;;;;;;;11.90;9.82;;;10.40;99.90;;;;;;5033189;28;20028;-51
2021/09/21 06:34:58;;;;;;;14.18;9.25;;;10.50;99.90;;;;;;5032935;28;20059;-51
2021/09/21 06:37:24;;;;;;;13.52;9.90;;;10.60;99.90;;;;;;5015643;28;20034;-53
2021/09/21 06:39:49;;;;;;;12.90;8.90;;;10.60;99.90;;;;;;5032749;28;20562;-51
2021/09/21 06:42:15;;;;;;;11.85;8.93;;;10.60;99.90;;;;;;5033386;28;20480;-53
2021/09/21 06:44:41;;;;;;;14.82;8.68;;;10.70;99.90;;;;;;5033202;28;20044;-53
2021/09/21 06:47:06;;;;;;;11.70;7.75;;;10.70;99.90;;;;;;5032717;28;20021;-51
2021/09/21 06:49:32;;;;;;;7.70;6.90;;;10.80;99.90;;;;;;5032395;28;20030;-52
2021/09/21 06:51:58;;;;;;;10.35;7.40;;;10.80;99.90;;;;;;5033057;28;20025;-50
2021/09/21 06:54:24;;;;;;;8.90;5.88;;;10.80;99.90;;;;;;5033156;28;20218;-52
2021/09/21 06:56:49;;;;;;;9.18;5.68;;;10.80;99.90;;;;;;5032874;28;20696;-52
2021/09/21 06:59:15;;;;;;;5.93;5.28;;;10.80;99.90;;;;;;5032555;28;20415;-51
2021/09/21 07:01:40;;;;;;;8.00;6.47;;;10.80;99.90;;;;;;5032594;28;20116;-51
2021/09/21 07:04:06;;;;;;;8.63;6.35;;;10.80;99.90;;;;;;5032653;28;20028;-50
2021/09/21 07:06:31;;;;;;;6.25;5.45;;;10.80;99.90;;;;;;5032458;28;20518;-50
2021/09/21 07:08:57;;;;;;;6.70;6.00;;;10.80;99.90;;;;;;5032404;28;20061;-55
2021/09/21 07:11:23;;;;;;;6.65;5.63;;;10.80;99.90;;;;;;5032531;28;20022;-49
2021/09/21 07:13:49;;;;;;;7.07;6.03;;;10.90;99.90;;;;;;5032386;28;20025;-51
2021/09/21 07:16:15;;;;;;;10.82;6.60;;;10.90;99.90;;;;;;5032374;28;20025;-52
2021/09/21 07:18:41;;;;;;;10.18;7.13;;;11.00;99.90;;;;;;5014578;28;20391;-51
2021/09/21 07:21:07;;;;;;;7.15;6.25;;;11.00;99.90;;;;;;5032118;28;20032;-50
2021/09/21 07:23:33;;;;;;;8.63;6.60;;;11.10;99.90;;;;;;5032415;28;20026;-52
2021/09/21 07:26:00;;;;;;;9.45;6.32;;;11.00;99.90;;;;;;5032089;28;20199;-51
2021/09/21 07:28:25;;;;;;;11.07;6.68;;;11.10;99.90;;;;;;5013333;28;20037;-51
2021/09/21 07:30:51;;;;;;;7.13;5.60;;;11.10;99.90;;;;;;5031905;28;20021;-51
2021/09/21 07:33:17;;;;;;;7.88;6.43;;;11.10;99.90;;;;;;5032032;28;20539;-51
2021/09/21 07:35:43;;;;;;;9.35;6.35;;;11.20;99.90;;;;;;5032246;28;20030;-50
2021/09/21 07:38:09;;;;;;;6.05;5.45;;;11.30;99.90;;;;;;5032091;28;20091;-50
2021/09/21 07:40:35;;;;;;;7.90;6.38;;;11.30;99.90;;;;;;5031609;28;20029;-51
2021/09/21 07:43:02;;;;;;;8.43;7.05;;;11.30;99.90;;;;;;5031898;28;20021;-50
2021/09/21 07:45:28;;;;;;;8.15;6.60;;;11.40;99.90;;;;;;5032003;28;20039;-51
2021/09/21 07:47:54;;;;;;;6.78;5.97;;;11.40;99.90;;;;;;5031555;28;20052;-51
2021/09/21 07:50:20;;;;;;;8.63;6.50;;;11.50;99.90;;;;;;5031543;28;20030;-53
2021/09/21 07:52:46;;;;;;;10.63;6.75;;;11.50;99.90;;;;;;5031887;28;20068;-51
2021/09/21 07:55:11;;;;;;;8.68;7.40;;;11.50;99.90;;;;;;5032112;28;20060;-50
2021/09/21 07:57:38;;;;;;;8.93;7.47;;;11.50;99.90;;;;;;5031659;28;20021;-50
2021/09/21 08:00:07;;;;;;;12.85;7.20;;;11.60;99.90;;;;;;5031239;28;20603;-54
2021/09/21 08:02:32;;;;;;;9.90;6.60;;;11.60;99.90;;;;;;5031410;28;20033;-52
2021/09/21 08:04:58;;;;;;;10.18;6.97;;;11.70;99.90;;;;;;5031960;28;20026;-50
2021/09/21 08:07:28;;;;;;;8.80;7.30;;;11.70;99.90;;;;;;5031817;28;20299;-51
2021/09/21 08:09:53;;;;;;;9.32;7.85;;;11.70;99.90;;;;;;5031531;28;20116;-51
2021/09/21 08:12:19;;;;;;;7.13;6.35;;;11.70;99.90;;;;;;5031585;28;20490;-51
2021/09/21 08:14:48;;;;;;;9.07;7.07;;;11.70;99.90;;;;;;5031580;28;20100;-51
2021/09/21 08:17:14;;;;;;;8.65;6.97;;;11.70;99.90;;;;;;5031645;28;20113;-50
2021/09/21 08:19:40;;;;;;;16.10;8.00;;;11.70;99.90;;;;;;5031364;28;20104;-51
2021/09/21 08:22:05;;;;;;;9.65;7.20;;;11.70;99.90;;;;;;5031595;28;20061;-51
2021/09/21 08:24:31;;;;;;;10.30;7.88;;;11.70;99.90;;;;;;5031480;28;20033;-51
2021/09/21 08:26:56;;;;;;;7.63;6.15;;;11.70;99.90;;;;;;5032164;28;20071;-51
2021/09/21 08:29:22;;;;;;;7.80;6.55;;;11.70;99.90;;;;;;5031333;28;20025;-54
2021/09/21 08:31:48;;;;;;;8.43;6.10;;;11.70;99.90;;;;;;5031251;28;20025;-51
2021/09/21 08:34:13;;;;;;;7.40;6.20;;;11.70;99.90;;;;;;5031542;28;20447;-51
2021/09/21 08:36:39;;;;;;;6.50;5.57;;;11.70;99.90;;;;;;5031207;28;20079;-53
2021/09/21 08:39:05;;;;;;;8.73;5.53;;;11.70;99.90;;;;;;5030834;28;20096;-50
2021/09/21 08:41:31;;;;;;;6.22;5.45;;;11.80;99.90;;;;;;5031049;28;20083;-51
2021/09/21 08:43:57;;;;;;;8.10;5.55;;;11.90;99.90;;;;;;5031271;28;20163;-51
2021/09/21 08:46:23;;;;;;;8.48;6.57;;;11.90;99.90;;;;;;5013386;28;20064;-53
2021/09/21 08:48:49;;;;;;;8.13;7.18;;;12.00;99.90;;;;;;5031156;28;20550;-56
2021/09/21 08:51:15;;;;;;;8.00;6.72;;;12.10;99.90;;;;;;5030892;28;20029;-53
2021/09/21 08:53:41;;;;;;;7.32;6.05;;;12.10;99.90;;;;;;5013370;28;20126;-53
2021/09/21 08:56:07;;;;;;;7.85;6.03;;;12.10;99.90;;;;;;5013776;28;20122;-51
2021/09/21 08:58:33;;;;;;;6.38;5.45;;;12.10;99.90;;;;;;5031167;28;20135;-51
2021/09/21 09:01:12;;;;;;;7.68;6.57;;;12.10;99.90;;;;;;5030394;28;20399;-51
2021/09/21 09:03:38;;;;;;;8.23;5.53;;;12.20;99.90;;;;;;5030722;28;20026;-52
2021/09/21 09:06:07;;;;;;;7.15;6.10;;;12.20;99.90;;;;;;5030913;28;20028;-51
2021/09/21 09:08:37;;;;;;;8.13;6.68;;;12.20;99.90;;;;;;5030750;28;20018;-50
2021/09/21 09:11:29;;;;;;;7.30;6.43;;;12.20;99.90;;;;;;5012537;28;20029;-50
2021/09/21 09:13:58;;;;;;;7.85;6.40;;;12.20;99.90;;;;;;5027917;22;20054;-52
2021/09/21 09:16:27;;;;;;;6.40;5.70;;;12.30;99.90;;;;;;5009015;28;20018;-49
2021/09/21 09:19:08;;;;;;;9.07;6.35;;;12.30;99.90;;;;;;5010887;28;20018;-49
2021/09/21 09:21:35;;;;;;;8.80;6.78;;;12.40;99.90;;;;;;5010879;28;20039;-48
2021/09/21 09:24:03;;;;;;;7.75;6.55;;;12.50;99.90;;;;;;5010821;28;20026;-49
2021/09/21 09:26:32;;;;;;;7.72;6.38;;;12.50;99.90;;;;;;5010772;28;20029;-50
2021/09/21 09:28:57;;;;;;;8.80;6.15;;;12.60;99.90;;;;;;5011055;28;20029;-50
2021/09/21 09:31:30;;;;;;;8.00;5.90;;;12.60;99.90;;;;;;5010639;28;20022;-49
2021/09/21 09:34:22;;;;;;;7.72;6.32;;;12.70;99.90;;;;;;5010547;28;20037;-53
2021/09/21 09:36:54;;;;;;;9.82;6.32;;;12.80;99.90;;;;;;5010611;28;20520;-50
2021/09/21 09:39:22;;;;;;;8.07;6.25;;;12.90;99.90;;;;;;5010136;28;20026;-53
2021/09/21 09:41:50;;;;;;;7.32;6.53;;;13.00;99.90;;;;;;5010091;28;20392;-53
2021/09/21 09:44:19;;;;;;;8.77;6.25;;;13.00;99.90;;;;;;5010360;28;20034;-51
2021/09/21 09:46:53;;;;;;;7.32;5.47;;;13.10;99.90;;;;;;5010221;28;20018;-50
2021/09/21 09:49:30;;;;;;;9.00;6.53;;;13.20;99.90;;;;;;5010020;28;20476;-50
2021/09/21 09:52:03;;;;;;;9.07;6.32;;;13.30;99.90;;;;;;5009851;28;20037;-51
2021/09/21 09:54:30;;;;;;;8.02;6.78;;;13.40;99.90;;;;;;4993968;28;20022;-50
2021/09/21 09:56:56;;;;;;;6.05;5.20;;;13.50;99.90;;;;;;5010323;28;20022;-52
2021/09/21 09:59:23;;;;;;;6.70;5.53;;;13.60;99.90;;;;;;4992622;28;20029;-48
2021/09/21 10:01:48;;;;;;;8.88;5.90;;;13.70;99.90;;;;;;4976327;28;20026;-54
2021/09/21 10:04:15;;;;;;;8.88;6.10;;;13.80;99.90;;;;;;5010340;28;20032;-53
2021/09/21 10:06:41;;;;;;;7.95;5.50;;;13.90;99.90;;;;;;5010128;28;20018;-48
2021/09/21 10:09:08;;;;;;;8.32;5.60;;;13.90;99.90;;;;;;5009935;28;20026;-54
2021/09/21 10:11:34;;;;;;;8.93;5.55;;;13.90;99.90;;;;;;5010189;28;20029;-49
2021/09/21 10:14:02;;;;;;;6.65;5.95;;;14.00;99.90;;;;;;4992073;28;20045;-50
2021/09/21 10:16:28;;;;;;;14.57;7.13;;;14.00;99.90;;;;;;5010212;28;20097;-50
2021/09/21 10:18:59;;;;;;;8.77;5.80;;;14.10;99.90;;;;;;5010211;28;20109;-54
2021/09/21 10:21:31;;;;;;;7.15;5.38;;;14.10;99.90;;;;;;4992278;28;20032;-50
2021/09/21 10:24:02;;;;;;;6.95;5.63;;;14.20;99.90;;;;;;5010065;28;20045;-51
2021/09/21 10:26:28;;;;;;;16.58;7.55;;;14.30;99.90;;;;;;5010310;28;20032;-54
2021/09/21 10:28:57;;;;;;;8.75;5.10;;;14.30;99.90;;;;;;5010543;28;20026;-50
2021/09/21 10:31:23;;;;;;;7.80;5.75;;;14.30;99.90;;;;;;5010109;28;20547;-50
2021/09/21 10:33:49;;;;;;;6.53;5.15;;;14.30;99.90;;;;;;5009938;28;20026;-48
2021/09/21 10:36:30;;;;;;;7.63;5.45;;;14.20;99.90;;;;;;5009938;28;20061;-52
2021/09/21 10:39:10;;;;;;;9.25;5.13;;;14.20;99.90;;;;;;5009871;28;20018;-49
2021/09/21 10:42:07;;;;;;;5.22;4.70;;;14.30;99.90;;;;;;5010051;28;20504;-51
2021/09/21 10:44:33;;;;;;;;;;;14.30;99.90;;;;;;4994723;28;20459;-50
2021/09/21 10:47:04;;;;;;;5.75;4.45;;;14.30;99.90;;;;;;5009879;28;19905;-52
2021/09/21 10:49:41;;;;;;;5.13;4.43;;;14.30;99.90;;;;;;5009552;28;20543;-50
2021/09/21 10:52:13;;;;;;;6.10;4.80;;;14.30;99.90;;;;;;5007746;28;20026;-50
2021/09/21 10:54:41;;;;;;;7.68;4.60;;;14.30;99.90;;;;;;5007565;28;20026;-47
2021/09/21 10:57:17;;;;;;;8.05;4.85;;;14.30;99.90;;;;;;5008949;28;20085;-47
2021/09/21 10:59:57;;;;;;;5.40;4.78;;;14.30;99.90;;;;;;5009629;28;20114;-47
2021/09/21 11:02:36;;;;;;;6.57;4.95;;;14.30;99.90;;;;;;5010151;28;20034;-53
2021/09/21 11:05:02;;;;;;;6.35;4.97;;;14.30;99.90;;;;;;5012831;28;20563;-52
2021/09/21 11:07:28;;;;;;;4.95;4.45;;;14.30;99.90;;;;;;5013242;28;20037;-50
2021/09/21 11:09:55;;;;;;;4.28;3.88;;;14.30;99.90;;;;;;5012914;28;20037;-54
2021/09/21 11:12:23;;;;;;;5.55;4.55;;;14.30;99.90;;;;;;4995746;28;20062;-52
2021/09/21 11:14:55;;;;;;;5.78;4.45;;;14.20;99.90;;;;;;5012384;28;20033;-47
2021/09/21 11:17:26;;;;;;;6.60;4.72;;;14.30;99.90;;;;;;5013133;28;20030;-49
2021/09/21 11:19:54;;;;;;;5.47;4.85;;;14.20;99.90;;;;;;5012685;28;20030;-49
2021/09/21 11:22:28;;;;;;;7.03;3.97;;;14.20;99.90;;;;;;5012914;28;20026;-48
2021/09/21 11:25:09;;;;;;;6.35;4.70;;;14.20;99.90;;;;;;5012962;28;20025;-50
2021/09/21 11:27:39;;;;;;;7.50;5.63;;;14.20;99.90;;;;;;5013038;28;20014;-53
2021/09/21 11:30:13;;;;;;;6.75;4.80;;;14.20;99.90;;;;;;5012796;28;20030;-53
2021/09/21 11:32:40;;;;;;;7.15;4.97;;;14.20;99.90;;;;;;5012964;28;20032;-52
2021/09/21 11:35:17;;;;;;;5.53;4.97;;;14.30;99.90;;;;;;5012699;28;20025;-50
2021/09/21 11:37:52;;;;;;;6.40;4.10;;;14.20;99.90;;;;;;5012771;28;20095;-51
2021/09/21 11:40:30;;;;;;;6.95;4.70;;;14.20;99.90;;;;;;5012366;28;20065;-49
2021/09/21 11:42:57;;;;;;;6.35;4.40;;;14.20;99.90;;;;;;5012474;28;20420;-48
2021/09/21 11:45:23;;;;;;;6.32;5.03;;;14.30;99.90;;;;;;5012607;28;20018;-49
2021/09/21 11:47:49;;;;;;;5.05;4.00;;;14.30;99.90;;;;;;5012570;28;20100;-51
2021/09/21 11:50:21;;;;;;;6.10;4.32;;;14.30;99.90;;;;;;5012054;28;20121;-51
2021/09/21 11:52:50;;;;;;;5.68;5.07;;;14.40;99.90;;;;;;5012556;28;20401;-52
2021/09/21 11:55:18;;;;;;;6.32;5.15;;;14.50;99.90;;;;;;5012279;28;20029;-49
2021/09/21 11:57:45;;;;;;;7.07;4.88;;;14.50;99.90;;;;;;5012196;28;20038;-53
2021/09/21 12:00:41;;;;;;;7.82;5.20;;;14.50;99.90;;;;;;5012038;28;20066;-48
2021/09/21 12:03:18;;;;;;;5.78;4.95;;;14.50;99.90;;;;;;5012251;28;20037;-50
2021/09/21 12:05:47;;;;;;;6.75;5.18;;;14.60;99.90;;;;;;4995034;28;20503;-51
2021/09/21 12:08:16;;;;;;;8.18;5.72;;;14.50;99.90;;;;;;5012068;28;20037;-50
2021/09/21 12:10:50;;;;;;;5.85;5.07;;;14.50;99.90;;;;;;5012006;28;20045;-48
2021/09/21 12:13:18;;;;;;;8.65;5.68;;;14.60;99.90;;;;;;4994099;28;20191;-51
2021/09/21 12:15:50;;;;;;;9.23;5.75;;;14.70;99.90;;;;;;5011265;28;20037;-52
2021/09/21 12:18:16;;;;;;;6.95;5.32;;;14.70;99.90;;;;;;5011900;28;20045;-46
2021/09/21 12:20:49;;;;;;;6.53;5.00;;;14.90;99.90;;;;;;4993883;28;20138;-51
2021/09/21 12:23:15;;;;;;;4.90;4.40;;;15.00;99.90;;;;;;5011862;28;20023;-52
2021/09/21 12:25:42;;;;;;;6.15;4.60;;;15.10;99.90;;;;;;5011859;28;20164;-48
2021/09/21 12:28:10;;;;;;;7.07;4.78;;;15.20;99.90;;;;;;5011997;28;20034;-51
2021/09/21 12:30:44;;;;;;;5.93;4.22;;;15.20;99.90;;;;;;4993765;28;20037;-51
2021/09/21 12:33:12;;;;;;;10.45;4.75;;;15.20;99.90;;;;;;5011972;28;20107;-53
2021/09/21 12:35:43;;;;;;;6.95;4.72;;;15.20;99.90;;;;;;5012009;28;20029;-53
2021/09/21 12:38:13;;;;;;;6.13;5.15;;;15.30;99.90;;;;;;5011621;28;20026;-51
2021/09/21 12:40:51;;;;;;;5.97;4.55;;;15.30;99.90;;;;;;5011269;28;20022;-55
2021/09/21 12:43:42;;;;;;;7.20;4.43;;;15.40;99.90;;;;;;4993852;28;20033;-56
2021/09/21 12:46:10;;;;;;;6.03;4.82;;;15.50;99.90;;;;;;5011600;28;20014;-53
2021/09/21 12:48:38;;;;;;;7.78;5.45;;;15.50;99.90;;;;;;4993612;28;20084;-47
2021/09/21 12:51:06;;;;;;;7.45;5.18;;;15.50;99.90;;;;;;5010930;28;20037;-52
2021/09/21 12:53:33;;;;;;;11.35;5.43;;;15.50;99.90;;;;;;5011297;28;20112;-51
2021/09/21 12:56:01;;;;;;;5.95;5.15;;;15.50;99.90;;;;;;5011264;28;20105;-47
2021/09/21 12:58:34;;;;;;;6.65;5.88;;;15.50;99.90;;;;;;5011124;28;20084;-52